Time;durP1;ratioP1;P1;durP2;ratioP2;P2;SDS_P1;SDS_P2;PMS_P1;PMS_P2;Temp;Humidity;BMP_temperature;BMP_pressure;BME280_temperature;BME280_humidity;BME280_pressure;Samples;Min_cycle;Max_cycle;Signal;HPM_P1;HPM_P2
2022/02/06 00:02:07;;;;;;;;;;;179.80;2252.80;;;;;;4919856;29;19917;-77
2022/02/06 00:04:35;;;;;;;;;;;179.70;2252.80;;;;;;4920070;29;19907;-80
2022/02/06 00:07:00;;;;;;;;;;;179.70;2252.80;;;;;;4919779;29;20387;-79
2022/02/06 00:09:26;;;;;;;;;;;179.50;2252.80;;;;;;4920039;29;19907;-80
2022/02/06 00:11:52;;;;;;;;;;;179.40;2252.80;;;;;;4894324;29;19923;-80
2022/02/06 00:14:17;;;;;;;;;;;179.30;2252.80;;;;;;4894856;29;19939;-80
2022/02/06 00:16:43;;;;;;;;;;;154.50;2252.80;;;;;;4914296;29;19943;-77
2022/02/06 00:19:08;;;;;;;;;;;154.40;2252.80;;;;;;4910157;29;19911;-78
2022/02/06 00:21:35;;;;;;;;;;;154.40;2252.80;;;;;;4911371;29;19963;-76
2022/02/06 00:24:03;;;;;;;;;;;154.10;2252.80;;;;;;4892697;29;19914;-80
2022/02/06 00:34:46;;;;;;;;;;;153.70;2252.80;;;;;;4909315;29;20299;-79
2022/02/06 00:39:58;;;;;;;;;;;153.60;2252.80;;;;;;4910279;29;20022;-80
2022/02/06 00:42:24;;;;;;;;;;;153.80;2252.80;;;;;;4910532;29;19909;-78
2022/02/06 00:44:50;;;;;;;;;;;153.80;2252.80;;;;;;4910371;29;19946;-76
2022/02/06 00:47:15;;;;;;;;;;;153.60;2252.80;;;;;;4909284;29;20344;-76
2022/02/06 00:49:43;;;;;;;;;;;153.60;2252.80;;;;;;4910801;29;19907;-79
2022/02/06 00:52:15;;;;;;;;;;;128.80;2252.80;;;;;;4908016;29;20391;-79
2022/02/06 00:54:41;;;;;;;;;;;128.90;2252.80;;;;;;4892106;29;19971;-80
2022/02/06 00:57:07;;;;;;;;;;;128.70;2252.80;;;;;;4910033;29;20360;-79
2022/02/06 00:59:32;;;;;;;;;;;128.70;2252.80;;;;;;4909197;29;20018;-79
2022/02/06 01:01:58;;;;;;;;;;;128.70;2252.80;;;;;;4908686;29;19911;-77
2022/02/06 01:04:23;;;;;;;;;;;128.60;2252.80;;;;;;4908208;29;20284;-77
2022/02/06 01:06:49;;;;;;;;;;;128.60;2252.80;;;;;;4909668;29;19957;-81
2022/02/06 01:09:17;;;;;;;;;;;128.70;2252.80;;;;;;4891908;29;20372;-76
2022/02/06 01:11:42;;;;;;;;;;;128.60;2252.80;;;;;;4910416;29;19915;-79
2022/02/06 01:19:25;;;;;;;;;;;128.40;2252.80;;;;;;4908472;29;19914;-79
2022/02/06 01:22:01;;;;;;;;;;;128.50;2252.80;;;;;;4909858;29;19907;-80
2022/02/06 01:24:40;;;;;;;;;;;128.60;2252.80;;;;;;4892813;29;19915;-80
2022/02/06 01:27:09;;;;;;;;;;;128.50;2252.80;;;;;;4895906;29;19907;-76
2022/02/06 01:29:58;;;;;;;;;;;128.50;2252.80;;;;;;4901290;29;19934;-78
2022/02/06 01:32:31;;;;;;;;;;;128.60;2252.80;;;;;;4917031;29;20021;-79
2022/02/06 01:35:09;;;;;;;;;;;128.50;2252.80;;;;;;4909934;29;19907;-80
2022/02/06 01:37:45;;;;;;;;;;;128.60;2252.80;;;;;;4892931;29;20249;-75
2022/02/06 01:40:31;;;;;;;;;;;128.60;2252.80;;;;;;4892751;29;19962;-77
2022/02/06 01:43:05;;;;;;;;;;;128.50;2252.80;;;;;;4909307;29;19906;-77
2022/02/06 01:46:06;;;;;;;;;;;128.60;2252.80;;;;;;4909359;29;19911;-76
2022/02/06 02:04:40;;;;;;;;;;;128.70;2252.80;;;;;;4909819;29;19907;-79
2022/02/06 02:10:38;;;;;;;;;;;128.70;2252.80;;;;;;4917455;29;19919;-80
2022/02/06 02:12:56;;;;;;;;;;;128.80;2252.80;;;;;;4909772;29;19970;-80
2022/02/06 02:23:37;;;;;;;;;;;128.70;2252.80;;;;;;4908124;29;20467;-80
2022/02/06 02:47:16;;;;;;;;;;;153.80;2252.80;;;;;;4908175;29;19906;-80
2022/02/06 02:49:49;;;;;;;;;;;153.60;2252.80;;;;;;4906801;29;19955;-79
2022/02/06 02:52:26;;;;;;;;;;;128.80;2252.80;;;;;;4889179;29;19963;-76
2022/02/06 02:55:00;;;;;;;;;;;128.60;2252.80;;;;;;4889329;29;19915;-78
2022/02/06 02:57:33;;;;;;;;;;;128.40;2252.80;;;;;;4907246;29;19907;-79
2022/02/06 03:02:25;;;;;;;;;;;128.40;2252.80;;;;;;4909671;29;19911;-76
2022/02/06 03:04:54;;;;;;;;;;;128.40;2252.80;;;;;;4907750;29;19907;-78
2022/02/06 03:07:20;;;;;;;;;;;128.30;2252.80;;;;;;4913190;29;19966;-76
2022/02/06 03:09:47;;;;;;;;;;;128.30;2252.80;;;;;;4891173;29;19907;-80
2022/02/06 03:12:15;;;;;;;;;;;128.30;2252.80;;;;;;4907948;29;19915;-78
2022/02/06 03:14:47;;;;;;;;;;;128.10;2252.80;;;;;;4891813;29;19959;-80
2022/02/06 03:17:21;;;;;;;;;;;128.10;2252.80;;;;;;4905824;29;19915;-78
2022/02/06 03:19:54;;;;;;;;;;;128.10;2252.80;;;;;;4906510;29;19911;-80
2022/02/06 03:22:24;;;;;;;;;;;128.20;2252.80;;;;;;4890985;29;20583;-80
2022/02/06 03:24:55;;;;;;;;;;;128.10;2252.80;;;;;;4907782;29;20066;-80
2022/02/06 03:27:21;;;;;;;;;;;128.30;2252.80;;;;;;4888750;29;20593;-76
2022/02/06 03:29:47;;;;;;;;;;;128.20;2252.80;;;;;;4909164;29;19911;-75
2022/02/06 03:32:12;;;;;;;;;;;128.10;2252.80;;;;;;4892820;29;19942;-81
2022/02/06 03:34:38;;;;;;;;;;;128.20;2252.80;;;;;;4912084;29;19914;-80
2022/02/06 03:37:04;;;;;;;;;;;128.30;2252.80;;;;;;4909891;29;19963;-79
2022/02/06 03:39:33;;;;;;;;;;;128.30;2252.80;;;;;;4910895;29;19965;-76
2022/02/06 03:42:09;;;;;;;;;;;128.30;2252.80;;;;;;4911384;29;19907;-80
2022/02/06 03:44:41;;;;;;;;;;;128.50;2252.80;;;;;;4911392;29;19915;-80
2022/02/06 03:47:35;;;;;;;;;;;128.60;2252.80;;;;;;4910158;29;19907;-76
2022/02/06 03:50:00;;;;;;;;;;;128.50;2252.80;;;;;;4910576;29;19907;-80
2022/02/06 03:52:32;;;;;;;;;;;128.50;2252.80;;;;;;4894660;29;19915;-79
2022/02/06 03:54:58;;;;;;;;;;;128.10;2252.80;;;;;;4908969;29;20280;-76
2022/02/06 03:57:24;;;;;;;;;;;128.30;2252.80;;;;;;4892771;29;19908;-79
2022/02/06 03:59:49;;;;;;;;;;;128.30;2252.80;;;;;;4895489;29;19915;-76
2022/02/06 04:02:15;;;;;;;;;;;128.40;2252.80;;;;;;4894344;29;19983;-78
2022/02/06 04:04:41;;;;;;;;;;;128.40;2252.80;;;;;;4892537;29;19919;-77
2022/02/06 04:07:09;;;;;;;;;;;128.40;2252.80;;;;;;4909138;29;19908;-79
2022/02/06 04:09:52;;;;;;;;;;;128.40;2252.80;;;;;;4908868;29;19914;-79
2022/02/06 04:12:19;;;;;;;;;;;128.20;2252.80;;;;;;4910688;29;19922;-79
2022/02/06 04:17:47;;;;;;;;;;;153.80;2252.80;;;;;;4861112;29;19912;-78
2022/02/06 04:20:13;;;;;;;;;;;103.30;2227.20;;;;;;4860883;29;19919;-81
2022/02/06 04:22:38;;;;;;;;;;;103.30;2227.20;;;;;;4846029;29;20330;-81
2022/02/06 04:25:05;;;;;;;;;;;103.30;2227.20;;;;;;4861175;29;19908;-81
2022/02/06 04:27:31;;;;;;;;;;;128.00;2252.80;;;;;;4861022;29;19908;-80
2022/02/06 04:29:57;;;;;;;;;;;128.00;2252.80;;;;;;4860827;29;19920;-81
2022/02/06 04:32:23;;;;;;;;;;;128.00;2252.80;;;;;;4861091;29;20373;-80
2022/02/06 04:34:50;;;;;;;;;;;128.10;2252.80;;;;;;4845091;29;19915;-79
2022/02/06 04:40:05;;;;;;;;;;;128.00;2252.80;;;;;;4858040;29;20015;-80
2022/02/06 05:33:28;;;;;;;;;;;77.20;2227.20;;;;;;4803376;29;19928;-82
2022/02/06 05:35:54;;;;;;;;;;;77.10;2227.20;;;;;;4814948;29;19913;-81
2022/02/06 05:38:19;;;;;;;;;;;77.30;2227.20;;;;;;4806812;29;19942;-75
2022/02/06 05:40:45;;;;;;;;;;;77.40;2227.20;;;;;;4842957;29;19911;-81
2022/02/06 05:43:10;;;;;;;;;;;77.30;2227.20;;;;;;4908113;29;19941;-80
2022/02/06 05:45:36;;;;;;;;;;;77.40;2227.20;;;;;;4907753;29;19935;-81
2022/02/06 05:48:04;;;;;;;;;;;77.50;2227.20;;;;;;4890279;29;19908;-76
2022/02/06 05:50:30;;;;;;;;;;;77.40;2227.20;;;;;;4917285;29;20010;-77
2022/02/06 05:52:56;;;;;;;;;;;77.20;2227.20;;;;;;4909013;29;20002;-81
2022/02/06 05:55:22;;;;;;;;;;;76.90;2227.20;;;;;;4890460;29;19930;-78
2022/02/06 05:57:47;;;;;;;;;;;77.20;2227.20;;;;;;4907274;29;19939;-75
2022/02/06 06:00:13;;;;;;;;;;;77.00;2227.20;;;;;;4911071;29;19907;-81
2022/02/06 06:02:39;;;;;;;;;;;52.10;2227.20;;;;;;4912198;29;19919;-76
2022/02/06 06:05:05;;;;;;;;;;;52.00;2227.20;;;;;;4908957;29;20010;-75
2022/02/06 06:07:31;;;;;;;;;;;52.00;2227.20;;;;;;4891752;29;19907;-78
2022/02/06 06:09:56;;;;;;;;;;;52.10;2227.20;;;;;;4908220;29;20063;-80
2022/02/06 06:12:22;;;;;;;;;;;76.80;2227.20;;;;;;4906542;29;19923;-79
2022/02/06 06:14:48;;;;;;;;;;;76.80;2227.20;;;;;;4905688;29;19911;-76
2022/02/06 06:17:14;;;;;;;;;;;77.00;2227.20;;;;;;4907802;29;19914;-80
2022/02/06 06:19:44;;;;;;;;;;;77.10;2227.20;;;;;;4908237;29;19979;-75
2022/02/06 06:22:11;;;;;;;;;;;77.10;2227.20;;;;;;4909269;29;20408;-81
2022/02/06 06:24:44;;;;;;;;;;;77.30;2227.20;;;;;;4890331;29;19911;-77
2022/02/06 06:27:09;;;;;;;;;;;77.40;2227.20;;;;;;4900338;29;19962;-78
2022/02/06 06:29:35;;;;;;;;;;;77.70;2227.20;;;;;;4911567;29;19907;-81
2022/02/06 06:32:00;;;;;;;;;;;102.50;2227.20;;;;;;4900376;29;19927;-76
2022/02/06 06:34:26;;;;;;;;;;;102.80;2227.20;;;;;;4913719;29;19907;-81
2022/02/06 06:36:52;;;;;;;;;;;102.90;2227.20;;;;;;4890223;29;19915;-76
2022/02/06 06:39:24;;;;;;;;;;;103.00;2227.20;;;;;;4890318;29;20332;-82
2022/02/06 06:41:49;;;;;;;;;;;103.20;2227.20;;;;;;4908415;29;19907;-77
2022/02/06 06:44:15;;;;;;;;;;;103.30;2227.20;;;;;;4891173;29;19914;-79
2022/02/06 06:46:41;;;;;;;;;;;103.30;2227.20;;;;;;4908995;29;19911;-81
2022/02/06 06:49:06;;;;;;;;;;;103.00;2227.20;;;;;;4889576;29;19907;-76
2022/02/06 06:51:32;;;;;;;;;;;102.90;2227.20;;;;;;4890980;29;20336;-76
2022/02/06 06:53:58;;;;;;;;;;;102.80;2227.20;;;;;;4905571;29;19914;-79
2022/02/06 06:56:37;;;;;;;;;;;102.70;2227.20;;;;;;4891025;29;19915;-79
2022/02/06 06:59:13;;;;;;;;;;;102.80;2227.20;;;;;;4909297;29;19911;-80
2022/02/06 07:01:45;;;;;;;;;;;102.80;2227.20;;;;;;4903661;29;20045;-79
2022/02/06 07:04:10;;;;;;;;;;;102.70;2227.20;;;;;;4916658;29;20387;-76
2022/02/06 07:06:36;;;;;;;;;;;102.70;2227.20;;;;;;4900021;29;19931;-76
2022/02/06 07:09:02;;;;;;;;;;;102.80;2227.20;;;;;;4899834;29;20252;-76
2022/02/06 07:11:28;;;;;;;;;;;102.60;2227.20;;;;;;4899995;29;19911;-76
2022/02/06 07:13:53;;;;;;;;;;;102.80;2227.20;;;;;;4916656;29;19911;-77
2022/02/06 07:16:19;;;;;;;;;;;102.80;2227.20;;;;;;4916483;29;20329;-79
2022/02/06 07:18:46;;;;;;;;;;;102.90;2227.20;;;;;;4900211;29;19916;-76
2022/02/06 07:21:11;;;;;;;;;;;102.90;2227.20;;;;;;4916499;29;19913;-85
2022/02/06 07:23:37;;;;;;;;;;;103.00;2227.20;;;;;;4916924;29;20279;-85
2022/02/06 07:26:06;;;;;;;;;;;103.00;2227.20;;;;;;4916929;29;19911;-84
2022/02/06 07:28:33;;;;;;;;;;;103.00;2227.20;;;;;;4917067;29;19955;-81
2022/02/06 07:30:59;;;;;;;;;;;103.10;2227.20;;;;;;4899814;29;20328;-84
2022/02/06 07:33:24;;;;;;;;;;;103.10;2227.20;;;;;;4916591;29;19919;-84
2022/02/06 07:35:51;;;;;;;;;;;103.20;2227.20;;;;;;4916529;29;19906;-87
2022/02/06 07:38:17;;;;;;;;;;;103.10;2227.20;;;;;;4916808;29;20372;-76
2022/02/06 07:40:42;;;;;;;;;;;103.10;2227.20;;;;;;4916728;29;19961;-87
2022/02/06 07:43:08;;;;;;;;;;;103.20;2227.20;;;;;;4916795;29;19907;-79
2022/02/06 07:45:39;;;;;;;;;;;103.20;2227.20;;;;;;4916908;29;19914;-80
2022/02/06 07:48:05;;;;;;;;;;;103.30;2227.20;;;;;;4916668;29;19914;-81
2022/02/06 07:50:31;;;;;;;;;;;103.20;2227.20;;;;;;4900020;29;19911;-84
2022/02/06 07:52:56;;;;;;;;;;;103.20;2227.20;;;;;;4898923;29;20066;-76
2022/02/06 07:55:22;;;;;;;;;;;103.20;2227.20;;;;;;4899851;29;19907;-82
2022/02/06 07:57:48;;;;;;;;;;;103.20;2227.20;;;;;;4899493;29;19911;-76
2022/02/06 08:00:14;;;;;;;;;;;103.30;2227.20;;;;;;4916347;29;19998;-84
2022/02/06 08:02:39;;;;;;;;;;;128.20;2252.80;;;;;;4899522;29;19934;-76
2022/02/06 08:05:05;;;;;;;;;;;128.10;2252.80;;;;;;4910692;29;19963;-75
2022/02/06 08:07:32;;;;;;;;;;;128.20;2252.80;;;;;;4897825;29;19912;-82
2022/02/06 08:10:00;;;;;;;;;;;128.10;2252.80;;;;;;4897747;29;20006;-83
2022/02/06 08:12:28;;;;;;;;;;;128.20;2252.80;;;;;;4896337;29;19915;-83
2022/02/06 08:14:55;;;;;;;;;;;128.40;2252.80;;;;;;4882103;29;19914;-84
2022/02/06 08:17:22;;;;;;;;;;;128.40;2252.80;;;;;;4884285;29;20369;-80
2022/02/06 08:19:48;;;;;;;;;;;128.50;2252.80;;;;;;4900820;29;19911;-78
2022/02/06 08:22:14;;;;;;;;;;;128.70;2252.80;;;;;;4900986;29;19911;-77
2022/02/06 08:24:40;;;;;;;;;;;128.70;2252.80;;;;;;4884204;29;19907;-77
2022/02/06 08:27:05;;;;;;;;;;;128.80;2252.80;;;;;;4901290;29;19907;-80
2022/02/06 08:29:31;;;;;;;;;;;153.60;2252.80;;;;;;4900543;29;19907;-82
2022/02/06 08:31:57;;;;;;;;;;;128.90;2252.80;;;;;;4889101;29;19933;-80
2022/02/06 08:34:23;;;;;;;;;;;153.70;2252.80;;;;;;4907401;29;19919;-80
2022/02/06 08:36:48;;;;;;;;;;;153.70;2252.80;;;;;;4911340;29;19907;-78
2022/02/06 08:39:14;;;;;;;;;;;153.80;2252.80;;;;;;4908157;29;19920;-78
2022/02/06 08:41:39;;;;;;;;;;;153.80;2252.80;;;;;;4893220;29;19966;-78
2022/02/06 08:44:05;;;;;;;;;;;154.00;2252.80;;;;;;4883614;29;19914;-82
2022/02/06 08:46:31;;;;;;;;;;;154.10;2252.80;;;;;;4900405;29;19942;-76
2022/02/06 08:48:56;;;;;;;;;;;154.20;2252.80;;;;;;4883712;29;19930;-75
2022/02/06 08:51:22;;;;;;;;;;;154.30;2252.80;;;;;;4899876;29;19963;-75
2022/02/06 08:53:48;;;;;;;;;;;154.50;2252.80;;;;;;4900161;29;19928;-79
2022/02/06 08:56:13;;;;;;;;;;;179.20;2252.80;;;;;;4883292;29;19908;-76
2022/02/06 08:58:39;;;;;;;;;;;179.30;2252.80;;;;;;4900221;29;19911;-79
2022/02/06 09:01:05;;;;;;;;;;;179.40;2252.80;;;;;;4883740;29;19911;-76
2022/02/06 09:03:30;;;;;;;;;;;179.50;2252.80;;;;;;4899986;29;20006;-78
2022/02/06 09:05:56;;;;;;;;;;;179.60;2252.80;;;;;;4883651;29;20353;-83
2022/02/06 09:08:22;;;;;;;;;;;179.60;2252.80;;;;;;4883379;29;19962;-77
2022/02/06 09:10:48;;;;;;;;;;;179.70;2252.80;;;;;;4883552;29;19907;-85
2022/02/06 09:13:14;;;;;;;;;;;179.80;2252.80;;;;;;4900035;29;19915;-75
2022/02/06 09:15:40;;;;;;;;;;;179.80;2252.80;;;;;;4883647;29;19971;-79
2022/02/06 09:18:05;;;;;;;;;;;179.90;2252.80;;;;;;4899909;29;20356;-83
2022/02/06 09:20:32;;;;;;;;;;;180.10;2252.80;;;;;;4900154;29;19930;-86
2022/02/06 09:22:59;;;;;;;;;;;204.80;2252.80;;;;;;4899606;29;19990;-83
2022/02/06 09:25:25;;;;;;;;;;;204.80;2252.80;;;;;;4899104;29;19907;-76
2022/02/06 09:27:50;;;;;;;;;;;205.00;2252.80;;;;;;4911389;29;19963;-78
2022/02/06 09:30:18;;;;;;;;;;;205.10;2252.80;;;;;;4909501;29;20289;-79
2022/02/06 09:35:10;;;;;;;;;;;205.30;2252.80;;;;;;4907859;29;19908;-79
2022/02/06 09:37:35;;;;;;;;;;;205.30;2252.80;;;;;;4918096;29;19942;-81
2022/02/06 09:40:02;;;;;;;;;;;205.40;2252.80;;;;;;4918529;29;19986;-78
2022/02/06 09:42:29;;;;;;;;;;;205.50;2252.80;;;;;;4918198;29;19913;-86
2022/02/06 09:44:55;;;;;;;;;;;205.50;2252.80;;;;;;4907341;29;20018;-86
2022/02/06 09:47:22;;;;;;;;;;;205.70;2252.80;;;;;;4908939;29;19946;-78
2022/02/06 09:49:48;;;;;;;;;;;230.40;2252.80;;;;;;4886345;29;20006;-85
2022/02/06 09:52:22;;;;;;;;;;;230.50;2252.80;;;;;;4882021;29;19916;-82
2022/02/06 09:54:49;;;;;;;;;;;230.70;2252.80;;;;;;4899176;29;19907;-80
2022/02/06 09:57:24;;;;;;;;;;;230.70;2252.80;;;;;;4898920;29;19955;-80
2022/02/06 09:59:51;;;;;;;;;;;230.70;2176.00;;;;;;4899049;29;19963;-77
2022/02/06 10:02:17;;;;;;;;;;;230.90;2201.60;;;;;;4882724;29;19911;-76
2022/02/06 10:04:44;;;;;;;;;;;231.00;2124.80;;;;;;4882564;29;19907;-83
2022/02/06 10:07:11;;;;;;;;;;;231.10;2099.20;;;;;;4903808;29;19922;-77
2022/02/06 10:09:49;;;;;;;;;;;231.10;2022.40;;;;;;4906554;29;19957;-82
2022/02/06 10:12:16;;;;;;;;;;;256.10;1996.80;;;;;;4907226;29;19927;-75
2022/02/06 10:14:41;;;;;;;;;;;256.10;2073.60;;;;;;4914594;29;19911;-79
2022/02/06 10:17:07;;;;;;;;;;;256.20;2073.60;;;;;;4912141;29;19918;-82
2022/02/06 10:19:35;;;;;;;;;;;256.10;2099.20;;;;;;4908979;29;19914;-79
2022/02/06 10:22:21;;;;;;;;;;;256.20;2099.20;;;;;;4916242;29;19918;-78
2022/02/06 10:24:56;;;;;;;;;;;256.30;2022.40;;;;;;4912368;29;20352;-83
2022/02/06 10:27:42;;;;;;;;;;;256.70;1817.60;;;;;;4904777;29;19930;-78
2022/02/06 10:30:19;;;;;;;;;;;256.50;1945.60;;;;;;4907817;29;20370;-81
2022/02/06 10:32:45;;;;;;;;;;;256.80;1971.20;;;;;;4907972;29;19920;-79
2022/02/06 10:35:11;;;;;;;;;;;256.80;1894.40;;;;;;4906051;29;19947;-79
2022/02/06 10:37:36;;;;;;;;;;;256.90;1945.60;;;;;;4908863;29;19998;-79
2022/02/06 10:40:05;;;;;;;;;;;281.60;1996.80;;;;;;4908349;29;19923;-80
2022/02/06 10:42:32;;;;;;;;;;;281.70;1868.80;;;;;;4907811;29;19925;-80
2022/02/06 10:45:16;;;;;;;;;;;281.80;1868.80;;;;;;4913963;29;20427;-84
2022/02/06 10:47:42;;;;;;;;;;;281.80;1868.80;;;;;;4914880;29;19965;-75
2022/02/06 10:50:10;;;;;;;;;;;282.00;1920.00;;;;;;4907317;29;19997;-81
2022/02/06 10:52:36;;;;;;;;;;;282.10;1792.00;;;;;;4908822;29;19926;-78
2022/02/06 10:55:02;;;;;;;;;;;282.40;1766.40;;;;;;4907492;29;20770;-77
2022/02/06 10:57:28;;;;;;;;;;;307.20;1843.20;;;;;;4897269;29;20387;-85
2022/02/06 10:59:54;;;;;;;;;;;307.20;1715.20;;;;;;4907493;29;19920;-80
2022/02/06 11:02:34;;;;;;;;;;;307.40;1715.20;;;;;;4917314;29;19911;-75
2022/02/06 11:05:07;;;;;;;;;;;307.30;1715.20;;;;;;4917113;29;19907;-77
2022/02/06 11:07:33;;;;;;;;;;;307.70;1689.60;;;;;;4917183;29;19911;-84
2022/02/06 11:10:09;;;;;;;;;;;307.60;1740.80;;;;;;4916794;29;19907;-81
2022/02/06 11:12:35;;;;;;;;;;;307.60;1715.20;;;;;;4916976;29;20277;-77
2022/02/06 11:15:02;;;;;;;;;;;307.80;1715.20;;;;;;4917171;29;19911;-82
2022/02/06 11:17:32;;;;;;;;;;;308.10;1740.80;;;;;;4900073;29;19988;-82
2022/02/06 11:20:03;;;;;;;;;;;308.10;1715.20;;;;;;4916970;29;20273;-76
2022/02/06 11:22:29;;;;;;;;;;;308.10;1715.20;;;;;;4916568;29;19907;-80
2022/02/06 11:24:55;;;;;;;;;;;332.90;1689.60;;;;;;4916046;29;19930;-76
2022/02/06 11:27:21;;;;;;;;;;;333.00;1715.20;;;;;;4916756;29;20354;-83
2022/02/06 11:29:47;;;;;;;;;;;332.80;1689.60;;;;;;4912292;29;19918;-76
2022/02/06 11:32:13;;;;;;;;;;;332.80;1689.60;;;;;;4906800;29;19923;-76
2022/02/06 11:34:43;;;;;;;;;;;308.10;1715.20;;;;;;4907816;29;20364;-76
2022/02/06 11:45:45;;;;;;;;;;;333.00;1715.20;;;;;;4910379;29;19974;-84
2022/02/06 11:48:14;;;;;;;;;;;333.00;1664.00;;;;;;4905178;29;19934;-77
2022/02/06 11:50:47;;;;;;;;;;;332.90;1715.20;;;;;;4899933;29;19911;-82
2022/02/06 11:53:24;;;;;;;;;;;332.80;1715.20;;;;;;4901134;29;19922;-76
2022/02/06 11:55:51;;;;;;;;;;;332.80;1689.60;;;;;;4901415;29;19908;-77
2022/02/06 11:58:25;;;;;;;;;;;332.80;1715.20;;;;;;4883897;29;19911;-81
2022/02/06 12:01:06;;;;;;;;;;;333.20;1715.20;;;;;;4901345;29;19939;-80
2022/02/06 12:03:52;;;;;;;;;;;333.40;1715.20;;;;;;4901199;29;20429;-78
2022/02/06 12:06:19;;;;;;;;;;;333.40;1715.20;;;;;;4900419;29;19908;-76
2022/02/06 12:09:04;;;;;;;;;;;333.10;1689.60;;;;;;4901071;29;19908;-75
2022/02/06 12:11:33;;;;;;;;;;;333.30;1715.20;;;;;;4890550;29;19915;-82
2022/02/06 12:14:23;;;;;;;;;;;333.00;1689.60;;;;;;4900697;29;19918;-79
2022/02/06 12:17:09;;;;;;;;;;;333.00;1715.20;;;;;;4884475;29;19914;-76
2022/02/06 12:19:35;;;;;;;;;;;333.20;1715.20;;;;;;4884282;29;20385;-76
2022/02/06 12:22:19;;;;;;;;;;;332.90;1715.20;;;;;;4900877;29;19932;-79
2022/02/06 12:24:44;;;;;;;;;;;333.00;1715.20;;;;;;4900940;29;19955;-76
2022/02/06 12:27:23;;;;;;;;;;;332.90;1689.60;;;;;;4900616;29;19912;-82
2022/02/06 12:29:50;;;;;;;;;;;332.90;1689.60;;;;;;4900465;29;19916;-76
2022/02/06 12:32:33;;;;;;;;;;;332.90;1689.60;;;;;;4883791;29;19944;-80
2022/02/06 12:37:43;;;;;;;;;;;333.20;1689.60;;;;;;4911084;29;19913;-81
2022/02/06 12:40:11;;;;;;;;;;;333.00;1689.60;;;;;;4897132;29;20005;-81
2022/02/06 12:42:40;;;;;;;;;;;333.00;1664.00;;;;;;4919243;29;19907;-82
2022/02/06 12:45:14;;;;;;;;;;;333.10;1638.40;;;;;;4919526;29;20287;-85
2022/02/06 12:47:41;;;;;;;;;;;333.00;1638.40;;;;;;4919501;29;19907;-84
2022/02/06 12:50:27;;;;;;;;;;;332.90;1664.00;;;;;;4919361;29;19911;-84
2022/02/06 12:52:53;;;;;;;;;;;332.90;1664.00;;;;;;4901805;29;19919;-87
2022/02/06 12:55:20;;;;;;;;;;;332.90;1715.20;;;;;;4910050;29;19957;-84
2022/02/06 12:57:48;;;;;;;;;;;333.00;1715.20;;;;;;4910059;29;19907;-75
2022/02/06 13:00:23;;;;;;;;;;;332.90;1689.60;;;;;;4909211;29;19911;-82
2022/02/06 13:02:49;;;;;;;;;;;333.00;1715.20;;;;;;4908941;29;19967;-88
2022/02/06 13:05:15;;;;;;;;;;;333.00;1715.20;;;;;;4910361;29;19911;-85
2022/02/06 13:07:42;;;;;;;;;;;333.10;1689.60;;;;;;4912164;29;20291;-75
2022/02/06 13:10:08;;;;;;;;;;;332.90;1715.20;;;;;;4907816;29;19907;-81
2022/02/06 13:12:56;;;;;;;;;;;332.80;1715.20;;;;;;4892782;29;20365;-81
2022/02/06 13:20:58;;;;;;;;;;;332.80;1740.80;;;;;;4910997;29;20010;-84
2022/02/06 13:23:42;;;;;;;;;;;308.00;1664.00;;;;;;4917910;29;20349;-82
2022/02/06 13:26:21;;;;;;;;;;;308.10;1715.20;;;;;;4910487;29;19907;-82
2022/02/06 13:31:42;;;;;;;;;;;308.00;1689.60;;;;;;4899692;29;19911;-82
2022/02/06 13:36:46;;;;;;;;;;;307.80;1689.60;;;;;;4899655;29;19911;-78
2022/02/06 13:39:19;;;;;;;;;;;307.80;1638.40;;;;;;4899314;29;19982;-80
2022/02/06 13:41:44;;;;;;;;;;;307.80;1612.80;;;;;;4882895;29;20006;-83
2022/02/06 13:44:14;;;;;;;;;;;307.80;1638.40;;;;;;4882423;29;20006;-80
2022/02/06 13:46:41;;;;;;;;;;;307.70;1638.40;;;;;;4899477;29;19908;-81
2022/02/06 13:49:08;;;;;;;;;;;307.80;1664.00;;;;;;4899256;29;19971;-80
2022/02/06 13:51:48;;;;;;;;;;;307.70;1638.40;;;;;;4906398;29;20360;-75
2022/02/06 13:54:14;;;;;;;;;;;307.70;1664.00;;;;;;4909092;29;20716;-79
2022/02/06 13:56:40;;;;;;;;;;;307.70;1689.60;;;;;;4906649;29;19908;-78
2022/02/06 13:59:09;;;;;;;;;;;307.70;1715.20;;;;;;4908039;29;19914;-76
2022/02/06 14:01:40;;;;;;;;;;;307.80;1689.60;;;;;;4906271;29;19982;-80
2022/02/06 14:04:25;;;;;;;;;;;307.80;1689.60;;;;;;4907782;29;19911;-79
2022/02/06 14:06:59;;;;;;;;;;;307.80;1689.60;;;;;;4907989;29;19918;-74
2022/02/06 14:09:32;;;;;;;;;;;307.70;1689.60;;;;;;4906372;29;19965;-79
2022/02/06 14:12:00;;;;;;;;;;;307.70;1715.20;;;;;;4891831;29;19923;-76
2022/02/06 14:14:27;;;;;;;;;;;307.60;1740.80;;;;;;4908642;29;20009;-76
2022/02/06 14:16:54;;;;;;;;;;;307.50;1766.40;;;;;;4891804;29;20051;-77
2022/02/06 14:19:48;;;;;;;;;;;307.40;1817.60;;;;;;4888805;29;21355;-79
2022/02/06 14:22:25;;;;;;;;;;;307.30;1843.20;;;;;;4906468;29;19908;-76
2022/02/06 14:24:53;;;;;;;;;;;307.30;1868.80;;;;;;4908282;29;19907;-77
2022/02/06 14:27:25;;;;;;;;;;;307.30;1868.80;;;;;;4892058;29;19907;-79
2022/02/06 14:30:25;;;;;;;;;;;307.20;1894.40;;;;;;4908369;29;19923;-79
2022/02/06 14:32:59;;;;;;;;;;;307.20;1894.40;;;;;;4876108;29;19923;-79
2022/02/06 14:35:36;;;;;;;;;;;307.30;1894.40;;;;;;4869094;29;19912;-83
2022/02/06 14:38:04;;;;;;;;;;;307.20;1868.80;;;;;;4868692;29;19922;-80
2022/02/06 14:40:48;;;;;;;;;;;282.50;1817.60;;;;;;4875149;29;19978;-80
2022/02/06 14:43:14;;;;;;;;;;;282.50;1817.60;;;;;;4878108;29;19993;-76
2022/02/06 14:46:06;;;;;;;;;;;282.50;1817.60;;;;;;4877801;29;19960;-79
2022/02/06 14:48:32;;;;;;;;;;;282.40;1792.00;;;;;;4874195;29;19911;-78
2022/02/06 14:50:57;;;;;;;;;;;282.40;1817.60;;;;;;4878030;29;19907;-83
2022/02/06 14:53:23;;;;;;;;;;;282.40;1817.60;;;;;;4874111;29;19920;-76
2022/02/06 14:55:51;;;;;;;;;;;282.40;1868.80;;;;;;4866925;29;19926;-78
2022/02/06 14:58:17;;;;;;;;;;;282.30;1868.80;;;;;;4868302;29;20048;-76
2022/02/06 15:00:42;;;;;;;;;;;282.20;1868.80;;;;;;4865914;29;20420;-77
2022/02/06 15:03:08;;;;;;;;;;;282.20;1868.80;;;;;;4868471;29;20011;-76
2022/02/06 15:05:34;;;;;;;;;;;282.20;1894.40;;;;;;4866559;29;19908;-80
2022/02/06 15:08:00;;;;;;;;;;;282.20;1894.40;;;;;;4869276;29;19992;-76
2022/02/06 15:10:27;;;;;;;;;;;282.00;1920.00;;;;;;4907198;29;19955;-81
2022/02/06 15:12:52;;;;;;;;;;;282.00;1920.00;;;;;;4908579;29;20280;-77
2022/02/06 15:15:19;;;;;;;;;;;281.90;1945.60;;;;;;4889304;29;19914;-75
2022/02/06 15:17:45;;;;;;;;;;;281.80;1945.60;;;;;;4900985;29;19914;-82
2022/02/06 15:20:11;;;;;;;;;;;281.80;1971.20;;;;;;4908105;29;19911;-77
2022/02/06 15:22:37;;;;;;;;;;;281.70;1971.20;;;;;;4908592;29;19949;-75
2022/02/06 15:25:03;;;;;;;;;;;281.70;1971.20;;;;;;4909455;29;20344;-83
2022/02/06 15:27:28;;;;;;;;;;;281.60;1996.80;;;;;;4911549;29;19998;-77
2022/02/06 15:29:54;;;;;;;;;;;281.60;1971.20;;;;;;4911481;29;19998;-78
2022/02/06 15:32:21;;;;;;;;;;;256.90;1945.60;;;;;;4911127;29;19930;-75
2022/02/06 15:34:47;;;;;;;;;;;256.80;1945.60;;;;;;4894372;29;20358;-75
2022/02/06 15:37:15;;;;;;;;;;;256.80;1945.60;;;;;;4894967;29;19951;-82
2022/02/06 15:39:41;;;;;;;;;;;256.90;1971.20;;;;;;4893472;29;19931;-77
2022/02/06 15:42:16;;;;;;;;;;;256.60;1971.20;;;;;;4909345;29;19911;-75
2022/02/06 15:44:42;;;;;;;;;;;256.50;1996.80;;;;;;4893362;29;19922;-77
2022/02/06 15:47:08;;;;;;;;;;;256.40;1996.80;;;;;;4892840;29;20053;-76
2022/02/06 15:49:34;;;;;;;;;;;256.30;2022.40;;;;;;4895126;29;20010;-76
2022/02/06 15:52:03;;;;;;;;;;;256.20;2048.00;;;;;;4893887;29;19918;-77
2022/02/06 15:54:29;;;;;;;;;;;256.20;2048.00;;;;;;4896898;29;20357;-83
2022/02/06 15:56:54;;;;;;;;;;;256.20;2048.00;;;;;;4914302;29;19955;-76
2022/02/06 15:59:20;;;;;;;;;;;256.20;2073.60;;;;;;4910629;29;19955;-77
2022/02/06 16:01:46;;;;;;;;;;;256.20;2124.80;;;;;;4891506;29;19917;-81
2022/02/06 16:04:11;;;;;;;;;;;256.10;2150.40;;;;;;4906570;29;19907;-80
2022/02/06 16:06:37;;;;;;;;;;;256.10;2176.00;;;;;;4894442;29;19914;-83
2022/02/06 16:09:04;;;;;;;;;;;256.00;2201.60;;;;;;4909588;29;19914;-83
2022/02/06 16:11:32;;;;;;;;;;;256.10;2201.60;;;;;;4908617;29;19954;-87
2022/02/06 16:13:57;;;;;;;;;;;256.00;2176.00;;;;;;4893989;29;19915;-84
2022/02/06 16:16:26;;;;;;;;;;;231.30;2201.60;;;;;;4911268;29;20378;-85
2022/02/06 16:18:56;;;;;;;;;;;231.30;2227.20;;;;;;4908427;29;20003;-85
2022/02/06 16:21:22;;;;;;;;;;;231.30;2252.80;;;;;;4908333;29;19907;-81